createdAt,value
2023-08-27T00:02:24.084Z,100814.50
2023-08-27T00:04:52.264Z,100804.63
2023-08-27T00:07:20.435Z,100801.91
2023-08-27T00:09:47.482Z,100807.59
2023-08-27T00:12:17.094Z,100797.53
2023-08-27T00:14:45.386Z,100804.28
2023-08-27T00:17:14.376Z,100805.38
2023-08-27T00:19:42.634Z,100803.69
2023-08-27T00:22:10.875Z,100808.09
2023-08-27T00:24:39.284Z,100795.28
2023-08-27T00:27:08.046Z,100803.47
2023-08-27T00:29:37.569Z,100793.72
2023-08-27T00:32:19.491Z,100793.50
2023-08-27T00:34:52.877Z,100792.06
2023-08-27T00:37:22.566Z,100790.44
2023-08-27T00:39:51.026Z,100787.72
2023-08-27T00:42:19.242Z,100792.06
2023-08-27T00:44:49.449Z,100787.22
2023-08-27T00:47:19.055Z,100787.22
2023-08-27T00:49:47.807Z,100794.31
2023-08-27T00:52:19.052Z,100789.69
2023-08-27T00:54:47.514Z,100790.28
2023-08-27T00:57:17.112Z,100793.25
2023-08-27T00:59:45.433Z,100795.25
2023-08-27T01:02:16.366Z,100792.78
2023-08-27T01:04:44.485Z,100795.97
2023-08-27T01:07:17.693Z,100797.66
2023-08-27T01:09:50.496Z,100794.66
2023-08-27T01:12:25.840Z,100789.47
2023-08-27T01:14:55.575Z,100797.66
2023-08-27T01:17:25.758Z,100800.13
2023-08-27T01:19:54.150Z,100799.06
2023-08-27T01:22:23.889Z,100795.03
2023-08-27T01:24:53.689Z,100797.16
2023-08-27T01:27:29.522Z,100795.25
2023-08-27T01:30:06.159Z,100797.78
2023-08-27T01:32:40.537Z,100796.69
2023-08-27T01:35:11.716Z,100800.38
2023-08-27T01:37:41.949Z,100793.50
2023-08-27T01:40:10.694Z,100795.19
2023-08-27T01:42:38.912Z,100794.13
2023-08-27T01:45:08.644Z,100794.72
2023-08-27T01:47:36.944Z,100786.75
2023-08-27T01:50:06.722Z,100793.63
2023-08-27T01:52:37.190Z,100790.31
2023-08-27T01:55:08.958Z,100788.66
2023-08-27T01:57:37.258Z,100787.34
2023-08-27T02:00:10.320Z,100783.81
2023-08-27T02:02:43.303Z,100791.50
2023-08-27T02:05:11.446Z,100781.19
2023-08-27T02:07:41.002Z,100786.38
2023-08-27T02:10:11.481Z,100785.34
2023-08-27T02:12:39.644Z,100786.38
2023-08-27T02:15:08.993Z,100794.34
2023-08-27T02:17:39.265Z,100791.03
2023-08-27T02:20:11.381Z,100791.03
2023-08-27T02:22:40.205Z,100791.50
2023-08-27T02:25:10.696Z,100789.00
2023-08-27T02:27:38.869Z,100788.66
2023-08-27T02:30:08.376Z,100789.09
2023-08-27T02:32:37.579Z,100789.09
2023-08-27T02:35:06.633Z,100795.03
2023-08-27T02:37:34.896Z,100798.25
2023-08-27T02:40:04.071Z,100787.78
2023-08-27T02:42:33.626Z,100795.41
2023-08-27T02:45:01.770Z,100791.84
2023-08-27T02:47:29.941Z,100796.94
2023-08-27T02:49:58.062Z,100789.47
2023-08-27T02:52:26.114Z,100797.88
2023-08-27T02:54:54.350Z,100793.13
2023-08-27T02:57:22.535Z,100798.84
2023-08-27T02:59:52.155Z,100798.47
2023-08-27T03:02:20.322Z,100797.03
2023-08-27T03:04:48.732Z,100792.31
2023-08-27T03:07:16.909Z,100797.16
2023-08-27T03:09:45.036Z,100799.53
2023-08-27T03:12:13.118Z,100793.50
2023-08-27T03:14:42.142Z,100794.78
2023-08-27T03:17:11.596Z,100784.13
2023-08-27T03:19:39.668Z,100795.25
2023-08-27T03:22:07.982Z,100789.69
2023-08-27T03:24:38.085Z,100792.16
2023-08-27T03:27:06.545Z,100789.34
2023-08-27T03:29:34.829Z,100791.47
2023-08-27T03:32:04.266Z,100791.94
2023-08-27T03:34:33.986Z,100790.25
2023-08-27T03:37:02.661Z,100797.84
2023-08-27T03:39:30.738Z,100787.78
2023-08-27T03:41:58.963Z,100799.97
2023-08-27T03:44:27.144Z,100801.28
2023-08-27T03:46:55.204Z,100800.44
2023-08-27T03:49:23.333Z,100794.38
2023-08-27T03:51:52.816Z,100808.22
2023-08-27T03:54:21.879Z,100798.19
2023-08-27T03:56:49.997Z,100803.03
2023-08-27T03:59:18.126Z,100805.16
2023-08-27T04:01:46.383Z,100804.31
2023-08-27T04:04:14.654Z,100811.06
2023-08-27T04:06:42.986Z,100809.41
2023-08-27T04:09:12.487Z,100805.25
2023-08-27T04:11:40.614Z,100813.28
2023-08-27T04:14:08.683Z,100811.41
2023-08-27T04:16:36.848Z,100809.13
2023-08-27T04:19:05.043Z,100817.78
2023-08-27T04:21:33.114Z,100820.97
2023-08-27T04:24:01.277Z,100820.97
2023-08-27T04:26:30.652Z,100815.97
2023-08-27T04:28:58.680Z,100816.41
2023-08-27T04:31:26.985Z,100825.06
2023-08-27T04:33:55.201Z,100826.94
2023-08-27T04:36:23.279Z,100823.88
2023-08-27T04:38:51.554Z,100827.63
2023-08-27T04:41:20.004Z,100830.81
2023-08-27T04:43:49.448Z,100830.47
2023-08-27T04:46:17.600Z,100831.75
2023-08-27T04:48:45.687Z,100839.28
2023-08-27T04:51:15.768Z,100842.63
2023-08-27T04:53:44.208Z,100851.25
2023-08-27T04:56:12.427Z,100847.31
2023-08-27T04:58:40.706Z,100844.84
2023-08-27T05:01:11.203Z,100853.81
2023-08-27T05:03:40.243Z,100854.03
2023-08-27T05:06:08.941Z,100854.66
2023-08-27T05:08:37.994Z,100852.38
2023-08-27T05:11:06.857Z,100854.88
2023-08-27T05:13:35.007Z,100859.47
2023-08-27T05:16:03.808Z,100856.53
2023-08-27T05:18:35.241Z,100863.63
2023-08-27T05:21:03.449Z,100861.16
2023-08-27T05:23:31.582Z,100845.31
2023-08-27T05:26:00.271Z,100857.00
2023-08-27T05:28:28.448Z,100858.66
2023-08-27T05:30:56.750Z,100861.63
2023-08-27T05:33:26.145Z,100866.22
2023-08-27T05:35:56.249Z,100872.50
2023-08-27T05:38:24.590Z,100870.63
2023-08-27T05:40:54.519Z,100864.56
2023-08-27T05:43:24.169Z,100871.19
2023-08-27T05:45:52.648Z,100878.31
2023-08-27T05:48:21.239Z,100876.22
2023-08-27T05:50:49.692Z,100875.13
2023-08-27T05:53:19.772Z,100874.06
2023-08-27T05:55:48.211Z,100876.56
2023-08-27T05:58:16.863Z,100883.44
2023-08-27T06:00:45.221Z,100878.84
2023-08-27T06:03:13.647Z,100885.72
2023-08-27T06:05:42.146Z,100881.47
2023-08-27T06:08:10.667Z,100880.16
2023-08-27T06:10:43.172Z,100876.41
2023-08-27T06:13:11.354Z,100882.69
2023-08-27T06:15:45.786Z,100878.44
2023-08-27T06:18:17.922Z,100874.56
2023-08-27T06:21:03.586Z,100877.06
2023-08-27T06:23:35.070Z,100879.22
2023-08-27T06:26:14.832Z,100879.81
2023-08-27T06:28:52.291Z,100872.47
2023-08-27T06:31:22.758Z,100873.91
2023-08-27T06:33:53.941Z,100874.88
2023-08-27T06:36:26.737Z,100866.13
2023-08-27T06:38:55.516Z,100868.16
2023-08-27T06:41:25.202Z,100864.97
2023-08-27T06:43:57.165Z,100873.50
2023-08-27T06:46:25.604Z,100868.66
2023-08-27T06:48:53.821Z,100879.09
2023-08-27T06:51:22.038Z,100871.06
2023-08-27T06:53:50.389Z,100875.78
2023-08-27T06:56:21.178Z,100888.50
2023-08-27T06:58:51.011Z,100880.69
2023-08-27T07:01:19.703Z,100886.50
2023-08-27T07:03:51.611Z,100889.13
2023-08-27T07:06:21.027Z,100894.09
2023-08-27T07:08:49.438Z,100904.06
2023-08-27T07:11:19.096Z,100914.28
2023-08-27T07:13:50.227Z,100909.53
2023-08-27T07:16:20.684Z,100903.38
2023-08-27T07:18:49.417Z,100905.69
2023-08-27T07:21:19.147Z,100901.19
2023-08-27T07:23:50.191Z,100900.22
2023-08-27T07:26:21.603Z,100898.09
2023-08-27T07:28:50.189Z,100893.81
2023-08-27T07:31:20.157Z,100893.06
2023-08-27T07:33:48.377Z,100883.66
2023-08-27T07:36:21.869Z,100879.00
2023-08-27T07:38:56.118Z,100888.75
2023-08-27T07:41:24.450Z,100889.84
2023-08-27T07:43:53.002Z,100890.19
2023-08-27T07:46:22.669Z,100894.25
2023-08-27T07:48:50.940Z,100891.44
2023-08-27T07:51:19.225Z,100884.31
2023-08-27T07:53:47.696Z,100879.69
2023-08-27T07:56:16.088Z,100879.16
2023-08-27T07:58:45.570Z,100885.31
2023-08-27T08:01:22.106Z,100896.06
2023-08-27T08:04:01.014Z,100882.06
2023-08-27T08:06:34.870Z,100884.25
2023-08-27T08:09:04.241Z,100878.47
2023-08-27T08:11:38.766Z,100879.03
2023-08-27T08:14:17.159Z,100892.25
2023-08-27T08:16:51.302Z,100886.97
2023-08-27T08:19:37.800Z,100890.88
2023-08-27T08:22:11.842Z,100888.75
2023-08-27T08:24:50.446Z,100895.09
2023-08-27T08:27:24.216Z,100898.53
2023-08-27T08:29:52.534Z,100897.13
2023-08-27T08:32:20.744Z,100899.53
2023-08-27T08:34:54.620Z,100904.53
2023-08-27T08:37:28.215Z,100900.69
2023-08-27T08:40:08.382Z,100898.28
2023-08-27T08:42:49.499Z,100900.19
2023-08-27T08:45:31.950Z,100893.69
2023-08-27T08:48:04.566Z,100895.88
2023-08-27T08:50:49.264Z,100891.56
2023-08-27T08:53:30.127Z,100896.84
2023-08-27T08:56:03.162Z,100897.69
2023-08-27T08:58:37.994Z,100898.25
2023-08-27T09:01:11.277Z,100891.63
2023-08-27T09:03:55.286Z,100889.47
2023-08-27T09:10:39.602Z,100896.59
2023-08-27T09:13:16.783Z,100894.00
2023-08-27T09:16:00.101Z,100893.59
2023-08-27T09:18:31.017Z,100895.56
2023-08-27T09:21:01.791Z,100889.94
2023-08-27T09:23:33.558Z,100892.97
2023-08-27T09:26:01.960Z,100884.88
2023-08-27T09:28:30.221Z,100883.22
2023-08-27T09:30:58.347Z,100893.19
2023-08-27T09:33:38.054Z,100884.63
2023-08-27T09:36:07.231Z,100879.63
2023-08-27T09:38:37.376Z,100889.53
2023-08-27T09:41:16.263Z,100893.88
2023-08-27T09:43:52.320Z,100886.81
2023-08-27T09:46:20.791Z,100890.56
2023-08-27T09:48:59.094Z,100895.44
2023-08-27T09:51:29.005Z,100893.00
2023-08-27T09:53:58.742Z,100898.78
2023-08-27T09:56:27.913Z,100901.75
2023-08-27T09:58:57.834Z,100902.34
2023-08-27T10:01:35.116Z,100916.16
2023-08-27T10:04:04.303Z,100911.72
2023-08-27T10:06:36.719Z,100913.06
2023-08-27T10:09:07.053Z,100908.66
2023-08-27T10:11:35.303Z,100906.44
2023-08-27T10:14:05.019Z,100907.56
2023-08-27T10:16:36.160Z,100903.44
2023-08-27T10:19:05.569Z,100907.03
2023-08-27T10:21:34.109Z,100901.84
2023-08-27T10:24:04.283Z,100903.19
2023-08-27T10:26:34.077Z,100900.59
2023-08-27T10:29:02.460Z,100898.97
2023-08-27T10:31:30.691Z,100902.34
2023-08-27T10:33:58.963Z,100900.84
2023-08-27T10:36:30.959Z,100897.47
2023-08-27T10:39:02.763Z,100899.47
2023-08-27T10:41:31.392Z,100908.28
2023-08-27T10:44:02.481Z,100909.38
2023-08-27T10:46:31.015Z,100909.13
2023-08-27T10:48:59.117Z,100919.06
2023-08-27T10:51:32.973Z,100908.50
2023-08-27T10:54:05.918Z,100917.09
2023-08-27T10:56:38.864Z,100907.50
2023-08-27T10:59:10.889Z,100917.47
2023-08-27T11:01:40.949Z,100918.75
2023-08-27T11:04:09.239Z,100914.72
2023-08-27T11:06:44.903Z,100914.75
2023-08-27T11:09:22.272Z,100910.63
2023-08-27T11:11:53.520Z,100905.06
2023-08-27T11:14:24.210Z,100908.69
2023-08-27T11:16:58.279Z,100910.34
2023-08-27T11:19:36.877Z,100908.41
2023-08-27T11:22:11.137Z,100905.41
2023-08-27T11:24:46.167Z,100912.44
2023-08-27T11:27:16.324Z,100912.97
2023-08-27T11:29:47.505Z,100915.19
2023-08-27T11:32:17.928Z,100905.59
2023-08-27T11:34:52.007Z,100889.69
2023-08-27T11:37:22.035Z,100899.56
2023-08-27T11:39:53.762Z,100889.25
2023-08-27T11:42:28.207Z,100895.75
2023-08-27T11:44:58.203Z,100897.00
2023-08-27T11:47:26.478Z,100900.66
2023-08-27T11:49:58.426Z,100899.25
2023-08-27T11:52:27.232Z,100899.47
2023-08-27T11:54:57.727Z,100905.66
2023-08-27T11:58:00.419Z,100909.81
2023-08-27T12:00:28.172Z,100908.28
2023-08-27T12:02:56.701Z,100896.13
2023-08-27T12:05:28.457Z,100908.09
2023-08-27T12:07:56.852Z,100900.75
2023-08-27T12:10:25.310Z,100909.63
2023-08-27T12:12:53.499Z,100916.50
2023-08-27T12:15:22.061Z,100913.09
2023-08-27T12:17:51.988Z,100917.78
2023-08-27T12:20:32.676Z,100909.81
2023-08-27T12:23:12.243Z,100925.50
2023-08-27T12:25:48.145Z,100936.63
2023-08-27T12:28:16.615Z,100926.22
2023-08-27T12:30:49.741Z,100932.31
2023-08-27T12:33:23.326Z,100931.56
2023-08-27T12:35:52.287Z,100934.03
2023-08-27T12:38:20.388Z,100946.41
2023-08-27T12:40:48.838Z,100935.09
2023-08-27T12:43:17.650Z,100946.63
2023-08-27T12:45:45.900Z,100937.25
2023-08-27T12:48:14.130Z,100943.56
2023-08-27T12:50:43.919Z,100938.94
2023-08-27T12:53:15.097Z,100941.88
2023-08-27T12:55:43.421Z,100943.72
2023-08-27T12:58:11.543Z,100940.56
2023-08-27T13:00:39.643Z,100930.78
2023-08-27T13:03:08.175Z,100932.53
2023-08-27T13:05:36.543Z,100925.13
2023-08-27T13:08:06.806Z,100921.28
2023-08-27T13:10:35.042Z,100929.56
2023-08-27T13:13:03.460Z,100920.97
2023-08-27T13:15:31.762Z,100924.69
2023-08-27T13:18:00.058Z,100929.03
2023-08-27T13:20:28.557Z,100928.56
2023-08-27T13:22:56.787Z,100931.38
2023-08-27T13:25:26.434Z,100933.13
2023-08-27T13:27:54.514Z,100927.50
2023-08-27T13:30:23.894Z,100924.38
2023-08-27T13:32:53.598Z,100926.97
2023-08-27T13:35:24.013Z,100923.09
2023-08-27T13:37:52.278Z,100922.41
2023-08-27T13:40:20.582Z,100926.97
2023-08-27T13:42:51.923Z,100934.31
2023-08-27T13:45:21.326Z,100934.25
2023-08-27T13:47:49.619Z,100931.81
2023-08-27T13:50:18.671Z,100934.00
2023-08-27T13:52:47.225Z,100928.25
2023-08-27T13:55:15.577Z,100937.56
2023-08-27T13:57:43.963Z,100937.81
2023-08-27T14:00:14.976Z,100951.81
2023-08-27T14:02:44.990Z,100953.06
2023-08-27T14:05:13.592Z,100952.00
2023-08-27T14:07:41.674Z,100957.22
2023-08-27T14:10:10.647Z,100960.19
2023-08-27T14:12:38.927Z,100962.16
2023-08-27T14:15:08.416Z,100956.78
2023-08-27T14:17:38.464Z,100961.13
2023-08-27T14:20:07.832Z,100958.63
2023-08-27T14:22:36.054Z,100967.19
2023-08-27T14:25:05.016Z,100975.03
2023-08-27T14:27:35.454Z,100965.91
2023-08-27T14:30:03.773Z,100968.03
2023-08-27T14:32:32.075Z,100967.78
2023-08-27T14:35:01.771Z,100964.06
2023-08-27T14:37:30.755Z,100968.06
2023-08-27T14:39:58.972Z,100961.69
2023-08-27T14:42:27.244Z,100973.84
2023-08-27T14:44:55.571Z,100968.84
2023-08-27T14:47:24.057Z,100969.59
2023-08-27T14:49:52.433Z,100977.06
2023-08-27T14:52:22.392Z,100972.91
2023-08-27T14:54:50.946Z,100972.88
2023-08-27T14:57:19.619Z,100972.34
2023-08-27T14:59:48.448Z,100960.75
2023-08-27T15:02:16.909Z,100966.84
2023-08-27T15:04:45.524Z,100979.47
2023-08-27T15:07:14.800Z,100967.97
2023-08-27T15:09:44.940Z,100972.91
2023-08-27T15:12:18.820Z,100973.50
2023-08-27T15:14:47.550Z,100958.97
2023-08-27T15:17:16.100Z,100957.59
2023-08-27T15:19:44.449Z,100959.78
2023-08-27T15:22:12.737Z,100955.94
2023-08-27T15:24:41.131Z,100957.56
2023-08-27T15:27:10.575Z,100947.34
2023-08-27T15:29:38.964Z,100948.16
2023-08-27T15:32:07.621Z,100954.84
2023-08-27T15:34:37.685Z,100954.31
2023-08-27T15:37:06.389Z,100950.41
2023-08-27T15:39:34.572Z,100954.75
2023-08-27T15:42:02.913Z,100951.44
2023-08-27T15:44:32.702Z,100963.09
2023-08-27T15:47:01.119Z,100960.41
2023-08-27T15:49:30.900Z,100953.22
2023-08-27T15:52:00.859Z,100959.88
2023-08-27T15:54:29.599Z,100949.97
2023-08-27T15:56:58.272Z,100960.97
2023-08-27T15:59:26.589Z,100959.94
2023-08-27T16:01:57.005Z,100963.22
2023-08-27T16:04:27.942Z,100963.22
2023-08-27T16:06:56.418Z,100958.50
2023-08-27T16:09:24.950Z,100965.94
2023-08-27T16:11:53.224Z,100968.69
2023-08-27T16:14:21.503Z,100962.13
2023-08-27T16:16:49.892Z,100967.66
2023-08-27T16:19:19.609Z,100969.28
2023-08-27T16:21:48.332Z,100969.53
2023-08-27T16:24:16.661Z,100981.13
2023-08-27T16:26:44.961Z,100970.66
2023-08-27T16:29:13.105Z,100968.72
2023-08-27T16:31:41.259Z,100978.09
2023-08-27T16:34:09.501Z,100972.28
2023-08-27T16:36:39.482Z,100967.88
2023-08-27T16:39:07.826Z,100972.59
2023-08-27T16:41:36.567Z,100973.69
2023-08-27T16:44:05.604Z,100972.59
2023-08-27T16:46:33.883Z,100975.34
2023-08-27T16:49:02.315Z,100975.31
2023-08-27T16:51:30.498Z,100979.75
2023-08-27T16:54:00.320Z,100979.75
2023-08-27T16:56:28.515Z,100973.69
2023-08-27T16:58:57.190Z,100965.41
2023-08-27T17:01:25.592Z,100973.72
2023-08-27T17:03:54.061Z,100973.16
2023-08-27T17:06:22.237Z,100968.19
2023-08-27T17:08:50.441Z,100971.19
2023-08-27T17:11:20.537Z,100976.16
2023-08-27T17:13:48.946Z,100971.78
2023-08-27T17:16:17.311Z,100979.75
2023-08-27T17:18:45.691Z,100988.28
2023-08-27T17:21:13.977Z,100983.84
2023-08-27T17:23:42.196Z,100983.59
2023-08-27T17:26:10.480Z,100993.22
2023-08-27T17:28:39.952Z,100988.56
2023-08-27T17:31:08.317Z,100992.13
2023-08-27T17:33:36.440Z,100994.03
2023-08-27T17:36:05.115Z,100992.69
2023-08-27T17:38:33.426Z,101002.28
2023-08-27T17:41:01.870Z,101002.28
2023-08-27T17:43:33.216Z,101001.72
2023-08-27T17:46:02.670Z,100996.75
2023-08-27T17:48:31.475Z,100995.91
2023-08-27T17:50:59.682Z,101000.28
2023-08-27T17:53:29.700Z,101003.34
2023-08-27T17:55:58.185Z,101003.63
2023-08-27T17:58:26.448Z,101009.69
2023-08-27T18:00:56.142Z,101013.78
2023-08-27T18:03:25.895Z,101016.22
2023-08-27T18:05:54.123Z,101018.63
2023-08-27T18:08:22.884Z,101017.56
2023-08-27T18:10:51.241Z,101022.22
2023-08-27T18:13:19.687Z,101025.00
2023-08-27T18:15:48.107Z,101026.38
2023-08-27T18:18:16.559Z,101018.66
2023-08-27T18:20:46.569Z,101031.59
2023-08-27T18:23:14.820Z,101033.22
2023-08-27T18:25:42.958Z,101030.69
2023-08-27T18:28:11.197Z,101031.22
2023-08-27T18:30:39.389Z,101035.84
2023-08-27T18:33:07.861Z,101047.13
2023-08-27T18:35:36.012Z,101041.88
2023-08-27T18:38:06.631Z,101054.25
2023-08-27T18:40:34.817Z,101053.09
2023-08-27T18:43:03.120Z,101064.06
2023-08-27T18:45:32.202Z,101054.97
2023-08-27T18:48:00.745Z,101065.66
2023-08-27T18:50:29.304Z,101063.91
2023-08-27T18:52:57.606Z,101074.91
2023-08-27T18:55:27.620Z,101075.44
2023-08-27T18:57:56.154Z,101087.00
2023-08-27T19:00:24.927Z,101092.44
2023-08-27T19:02:53.059Z,101086.13
2023-08-27T19:05:21.383Z,101082.50
2023-08-27T19:07:49.677Z,101089.13
2023-08-27T19:10:18.310Z,101088.59
2023-08-27T19:12:47.840Z,101094.63
2023-08-27T19:15:16.079Z,101098.41
2023-08-27T19:18:34.421Z,101093.50
2023-08-27T19:21:02.765Z,101096.50
2023-08-27T19:23:31.020Z,101102.81
2023-08-27T19:26:07.824Z,101109.41
2023-08-27T19:28:41.550Z,101125.59
2023-08-27T19:31:09.650Z,101118.19
2023-08-27T19:33:37.941Z,101123.66
2023-08-27T19:36:06.681Z,101129.16
2023-08-27T19:38:35.119Z,101140.00
2023-08-27T19:41:03.923Z,101134.56
2023-08-27T19:43:32.224Z,101137.94
2023-08-27T19:46:02.198Z,101149.94
2023-08-27T19:48:30.779Z,101152.41
2023-08-27T19:50:59.047Z,101146.66
2023-08-27T19:53:27.447Z,101138.44
2023-08-27T19:55:55.820Z,101144.47
2023-08-27T19:58:23.956Z,101143.34
2023-08-27T20:00:52.103Z,101144.94
2023-08-27T20:03:21.702Z,101158.19
2023-08-27T20:05:51.143Z,101154.56
2023-08-27T20:08:19.312Z,101150.69
2023-08-27T20:10:47.353Z,101152.09
2023-08-27T20:13:15.880Z,101153.50
2023-08-27T20:15:44.430Z,101163.16
2023-08-27T20:18:12.723Z,101156.81
2023-08-27T20:20:42.297Z,101152.47
2023-08-27T20:23:10.529Z,101163.97
2023-08-27T20:29:48.092Z,101177.06
2023-08-27T20:32:16.181Z,101174.91
2023-08-27T20:34:44.464Z,101187.81
2023-08-27T20:37:13.866Z,101182.72
2023-08-27T20:39:42.158Z,101180.44
2023-08-27T20:42:10.289Z,101189.78
2023-08-27T20:44:39.027Z,101184.59
2023-08-27T20:47:07.275Z,101191.94
2023-08-27T20:49:35.432Z,101184.66
2023-08-27T20:52:04.252Z,101188.53
2023-08-27T20:54:33.859Z,101186.97
2023-08-27T20:57:01.910Z,101186.97
2023-08-27T20:59:29.984Z,101191.81
2023-08-27T21:01:59.004Z,101196.47
2023-08-27T21:04:27.461Z,101192.84
2023-08-27T21:06:55.635Z,101195.00
2023-08-27T21:09:24.806Z,101203.09
2023-08-27T21:11:54.427Z,101201.53
2023-08-27T21:14:22.603Z,101199.53
2023-08-27T21:16:51.194Z,101209.03
2023-08-27T21:19:19.378Z,101211.47
2023-08-27T21:21:47.617Z,101217.69
2023-08-27T21:24:15.765Z,101217.38
2023-08-27T21:26:44.026Z,101223.53
2023-08-27T21:29:13.582Z,101215.75
2023-08-27T21:31:53.879Z,101237.19
2023-08-27T21:35:36.564Z,101226.38
2023-08-27T21:38:04.921Z,101225.53
2023-08-27T21:40:35.775Z,101224.38
2023-08-27T21:43:04.138Z,101217.16
2023-08-27T21:45:33.790Z,101224.72
2023-08-27T21:48:02.110Z,101224.72
2023-08-27T21:50:30.878Z,101220.97
2023-08-27T21:53:23.888Z,101226.72
2023-08-27T21:55:52.041Z,101223.41
2023-08-27T21:58:20.722Z,101226.88
2023-08-27T22:00:50.213Z,101236.44
2023-08-27T22:03:19.140Z,101245.97
2023-08-27T22:05:47.315Z,101240.16
2023-08-27T22:08:15.572Z,101239.25
2023-08-27T22:10:43.808Z,101233.44
2023-08-27T22:13:12.714Z,101238.34
2023-08-27T22:15:40.903Z,101243.41
2023-08-27T22:18:10.402Z,101254.34
2023-08-27T22:20:38.521Z,101250.69
2023-08-27T22:23:06.574Z,101251.41
2023-08-27T22:25:36.309Z,101253.72
2023-08-27T22:28:04.753Z,101245.25
2023-08-27T22:30:32.911Z,101249.31
2023-08-27T22:33:01.308Z,101249.31
2023-08-27T22:35:31.250Z,101249.97
2023-08-27T22:37:59.344Z,101245.72
2023-08-27T22:40:27.557Z,101245.72
2023-08-27T22:42:55.913Z,101253.31
2023-08-27T22:45:23.999Z,101243.22
2023-08-27T22:47:52.099Z,101244.56
2023-08-27T22:50:20.644Z,101250.44
2023-08-27T22:52:50.152Z,101255.38
2023-08-27T22:55:18.329Z,101249.78
2023-08-27T22:57:46.634Z,101253.00
2023-08-27T23:00:16.029Z,101241.69
2023-08-27T23:02:44.353Z,101249.09
2023-08-27T23:05:12.515Z,101246.59
2023-08-27T23:07:40.727Z,101238.28
2023-08-27T23:10:10.946Z,101243.38
2023-08-27T23:12:39.048Z,101239.72
2023-08-27T23:15:09.156Z,101238.56
2023-08-27T23:17:37.744Z,101238.19
2023-08-27T23:20:07.407Z,101240.84
2023-08-27T23:22:35.529Z,101243.19
2023-08-27T23:25:05.134Z,101241.78
2023-08-27T23:27:34.735Z,101241.09
2023-08-27T23:30:04.044Z,101240.50
2023-08-27T23:32:32.484Z,101241.47
2023-08-27T23:35:00.591Z,101246.34
2023-08-27T23:37:28.941Z,101238.00
2023-08-27T23:39:57.132Z,101246.44
2023-08-27T23:42:25.503Z,101247.78
2023-08-27T23:45:00.927Z,101239.81
2023-08-27T23:47:29.972Z,101251.81
2023-08-27T23:49:58.132Z,101250.38
2023-08-27T23:52:26.427Z,101249.66
2023-08-27T23:54:54.763Z,101254.78
2023-08-27T23:57:23.002Z,101257.63
2023-08-27T23:59:51.192Z,101252.88
